KDHN/DHN METAR and TAF weather

Enter ICAO airport designator
Station Type Date Time Source
KDHN METAR 2022/01/27 22:53 UTC NOAA

KDHN 272253Z 08004KT 10SM CLR 13/03 A3021 RMK AO2 SLP229 T01330033 $


Station Type Date Time Source
KDHN Decoded METAR 2022/01/27 22:53 UTC NOAA

DOTHAN AIRPORT, AL, United States (KDHN) 31-19N 085-27W 113M
Jan 27, 2022 - 05:53 PM EST / 2022.01.27 2253 UTC
Wind: from the E (080 degrees) at 5 MPH (4 KT):0
Visibility: 10 mile(s):0
Sky conditions: clear
Temperature: 55.9 F (13.3 C)
Dew Point: 37.9 F (3.3 C)
Relative Humidity: 50%
Pressure (altimeter): 30.21 in. Hg (1023 hPa)
ob: KDHN 272253Z 08004KT 10SM CLR 13/03 A3021 RMK AO2 SLP229 T01330033
cycle: 23

Station Type Date Time Source
KDHN TAF 2022/01/27 18:22 UTC NOAA

TAF KDHN 271720Z 2718/2818 07009KT P6SM SKC
FM280000 08005KT P6SM SCT250
FM280900 VRB03KT P6SM BKN250

Example: see airport list